createdAt,value
2022-10-26T00:01:15.980Z,19.67
2022-10-26T00:03:44.872Z,18.67
2022-10-26T00:06:14.900Z,18.42
2022-10-26T00:08:42.894Z,19.55
2022-10-26T00:11:11.086Z,20.75
2022-10-26T00:13:39.025Z,20.83
2022-10-26T00:16:32.614Z,21.00
2022-10-26T00:18:59.767Z,20.50
2022-10-26T00:21:28.205Z,23.73
2022-10-26T00:23:55.260Z,21.75
2022-10-26T00:26:22.429Z,22.20
2022-10-26T00:28:49.478Z,21.80
2022-10-26T00:31:16.859Z,21.15
2022-10-26T00:33:44.280Z,20.75
2022-10-26T00:36:14.042Z,19.13
2022-10-26T00:38:46.241Z,19.77
2022-10-26T00:41:18.649Z,18.23
2022-10-26T00:43:45.880Z,18.70
2022-10-26T00:46:18.653Z,15.00
2022-10-26T00:48:50.930Z,17.60
2022-10-26T00:51:39.207Z,16.33
2022-10-26T00:54:12.253Z,14.25
2022-10-26T00:56:40.222Z,14.77
2022-10-26T00:59:11.295Z,13.63
2022-10-26T01:01:41.220Z,14.03
2022-10-26T01:04:08.455Z,12.70
2022-10-26T01:06:38.055Z,13.75
2022-10-26T01:09:05.721Z,14.15
2022-10-26T01:11:33.302Z,13.57
2022-10-26T01:14:04.208Z,14.27
2022-10-26T01:17:13.061Z,12.90
2022-10-26T01:19:47.901Z,12.93
2022-10-26T01:22:21.058Z,13.05
2022-10-26T01:25:00.375Z,12.40
2022-10-26T01:27:35.989Z,13.50
2022-10-26T01:30:16.625Z,12.13
2022-10-26T01:33:02.384Z,12.07
2022-10-26T01:36:02.447Z,12.98
2022-10-26T01:38:46.246Z,13.32
2022-10-26T01:41:29.882Z,11.63
2022-10-26T01:44:20.933Z,12.63
2022-10-26T01:46:51.493Z,11.50
2022-10-26T01:49:23.263Z,11.20
2022-10-26T01:51:50.774Z,12.45
2022-10-26T01:54:18.032Z,11.82
2022-10-26T01:56:50.967Z,10.95
2022-10-26T01:59:28.533Z,12.48
2022-10-26T02:02:04.668Z,11.43
2022-10-26T02:04:39.822Z,11.95
2022-10-26T02:07:30.174Z,12.75
2022-10-26T02:10:10.831Z,12.77
2022-10-26T02:13:09.160Z,13.45
2022-10-26T02:16:05.099Z,12.52
2022-10-26T02:18:34.640Z,11.45
2022-10-26T02:21:07.617Z,13.25
2022-10-26T02:23:40.162Z,12.45
2022-10-26T02:26:11.416Z,13.80
2022-10-26T02:28:47.080Z,12.73
2022-10-26T02:31:15.853Z,12.48
2022-10-26T02:36:22.138Z,13.02
2022-10-26T02:38:51.803Z,12.80
2022-10-26T02:41:22.013Z,12.45
2022-10-26T02:43:59.770Z,12.38
2022-10-26T02:46:28.187Z,12.82
2022-10-26T02:48:56.308Z,13.65
2022-10-26T02:51:39.480Z,12.63
2022-10-26T02:54:25.612Z,12.32
2022-10-26T02:56:58.826Z,12.00
2022-10-26T02:59:30.912Z,12.68
2022-10-26T03:01:58.627Z,11.73
2022-10-26T03:04:31.066Z,11.82
2022-10-26T03:06:58.554Z,11.30
2022-10-26T03:09:26.205Z,13.18
2022-10-26T03:11:53.684Z,10.65
2022-10-26T03:14:21.126Z,11.93
2022-10-26T03:16:48.505Z,11.05
2022-10-26T03:19:15.731Z,11.27
2022-10-26T03:21:42.856Z,11.20
2022-10-26T03:24:10.529Z,11.40
2022-10-26T03:26:37.791Z,10.57
2022-10-26T03:29:05.261Z,11.55
2022-10-26T03:31:32.413Z,10.63
2022-10-26T03:33:59.575Z,10.95
2022-10-26T03:36:26.711Z,11.68
2022-10-26T03:38:53.743Z,10.60
2022-10-26T03:41:21.008Z,11.05
2022-10-26T03:43:48.985Z,11.13
2022-10-26T03:46:16.243Z,11.45
2022-10-26T03:48:43.390Z,11.18
2022-10-26T03:51:10.567Z,11.93
2022-10-26T03:53:37.698Z,11.10
2022-10-26T03:56:05.055Z,11.15
2022-10-26T03:58:32.082Z,11.00
2022-10-26T04:01:00.680Z,10.85
2022-10-26T04:03:28.533Z,10.80
2022-10-26T04:05:55.775Z,11.30
2022-10-26T04:08:22.858Z,13.57
2022-10-26T04:10:49.885Z,11.40
2022-10-26T04:13:16.969Z,11.52
2022-10-26T04:15:44.079Z,11.68
2022-10-26T04:18:14.371Z,10.98
2022-10-26T04:20:42.497Z,11.20
2022-10-26T04:23:21.424Z,10.68
2022-10-26T04:25:49.106Z,12.23
2022-10-26T04:28:16.479Z,10.55
2022-10-26T04:30:44.111Z,11.07
2022-10-26T04:33:11.533Z,13.40
2022-10-26T04:35:38.754Z,10.30
2022-10-26T04:38:07.213Z,10.23
2022-10-26T04:40:35.787Z,10.80
2022-10-26T04:43:03.040Z,11.02
2022-10-26T04:45:31.304Z,10.80
2022-10-26T04:48:09.991Z,10.90
2022-10-26T04:50:38.172Z,10.02
2022-10-26T04:53:09.804Z,12.07
2022-10-26T04:55:36.984Z,10.77
2022-10-26T04:58:04.964Z,10.57
2022-10-26T05:00:33.113Z,10.60
2022-10-26T05:03:05.364Z,11.00
2022-10-26T05:05:36.117Z,11.07
2022-10-26T05:10:30.581Z,10.75
2022-10-26T05:12:59.416Z,11.38
2022-10-26T05:15:27.488Z,11.30
2022-10-26T05:18:03.512Z,11.50
2022-10-26T05:20:33.157Z,11.05
2022-10-26T05:23:04.976Z,10.93
2022-10-26T05:25:34.809Z,11.00
2022-10-26T05:28:03.288Z,11.00
2022-10-26T05:30:32.501Z,10.75
2022-10-26T05:33:03.207Z,10.50
2022-10-26T05:37:58.272Z,10.95
2022-10-26T05:40:25.899Z,11.05
2022-10-26T05:42:53.188Z,10.95
2022-10-26T05:45:20.545Z,11.15
2022-10-26T05:47:47.863Z,11.38
2022-10-26T05:50:15.279Z,10.63
2022-10-26T05:52:43.854Z,11.52
2022-10-26T05:55:13.578Z,11.15
2022-10-26T05:57:41.096Z,11.67
2022-10-26T06:00:10.981Z,10.98
2022-10-26T06:02:47.019Z,11.07
2022-10-26T06:05:22.467Z,11.75
2022-10-26T06:07:50.311Z,10.65
2022-10-26T06:10:19.102Z,11.18
2022-10-26T06:12:46.902Z,11.45
2022-10-26T06:15:20.533Z,11.88
2022-10-26T06:18:10.001Z,12.23
2022-10-26T06:20:44.730Z,10.75
2022-10-26T06:23:32.720Z,11.77
2022-10-26T06:26:17.969Z,10.35
2022-10-26T06:28:50.746Z,11.43
2022-10-26T06:31:18.377Z,11.07
2022-10-26T06:33:45.974Z,10.75
2022-10-26T06:36:23.876Z,15.10
2022-10-26T06:38:58.942Z,10.25
2022-10-26T06:41:27.065Z,10.52
2022-10-26T06:43:54.591Z,10.43
2022-10-26T06:46:27.620Z,10.02
2022-10-26T06:49:06.658Z,9.32
2022-10-26T06:51:47.290Z,9.43
2022-10-26T06:54:40.994Z,10.00
2022-10-26T06:57:13.063Z,11.25
2022-10-26T07:00:02.320Z,9.15
2022-10-26T07:04:57.802Z,8.82
2022-10-26T07:07:29.277Z,8.52
2022-10-26T07:09:56.456Z,9.55
2022-10-26T07:12:23.554Z,8.75
2022-10-26T07:14:50.461Z,8.52
2022-10-26T07:17:17.435Z,9.40
2022-10-26T07:19:45.056Z,8.40
2022-10-26T07:22:12.286Z,8.57
2022-10-26T07:24:40.113Z,8.93
2022-10-26T07:27:07.194Z,8.75
2022-10-26T07:29:35.534Z,9.05
2022-10-26T07:32:03.170Z,8.07
2022-10-26T07:34:30.217Z,7.43
2022-10-26T07:36:59.609Z,8.95
2022-10-26T07:39:27.006Z,9.82
2022-10-26T07:41:54.235Z,7.85
2022-10-26T07:44:21.179Z,7.88
2022-10-26T07:46:48.305Z,9.63
2022-10-26T07:49:17.751Z,9.65
2022-10-26T07:51:46.570Z,8.63
2022-10-26T07:54:13.564Z,9.02
2022-10-26T07:56:40.496Z,9.00
2022-10-26T07:59:07.567Z,8.63
2022-10-26T08:01:34.647Z,9.52
2022-10-26T08:04:01.684Z,8.57
2022-10-26T08:06:28.651Z,9.32
2022-10-26T08:08:55.608Z,9.02
2022-10-26T08:11:22.621Z,9.10
2022-10-26T08:13:55.598Z,8.52
2022-10-26T08:16:23.100Z,8.30
2022-10-26T08:18:51.633Z,9.50
2022-10-26T08:21:22.228Z,7.95
2022-10-26T08:24:02.718Z,8.55
2022-10-26T08:26:30.734Z,8.95
2022-10-26T08:28:57.737Z,9.30
2022-10-26T08:31:24.736Z,8.65
2022-10-26T08:33:51.868Z,8.38
2022-10-26T08:36:25.728Z,8.60
2022-10-26T08:38:52.918Z,9.27
2022-10-26T08:41:37.677Z,8.82
2022-10-26T08:44:44.334Z,9.00
2022-10-26T08:49:53.363Z,9.43
2022-10-26T08:52:28.864Z,8.73
2022-10-26T08:54:59.412Z,8.57
2022-10-26T08:57:33.224Z,9.27
2022-10-26T09:00:21.537Z,8.77
2022-10-26T09:02:52.970Z,8.95
2022-10-26T09:05:36.981Z,9.27
2022-10-26T09:08:31.597Z,8.60
2022-10-26T09:11:21.489Z,9.65
2022-10-26T09:14:00.608Z,9.10
2022-10-26T09:16:52.128Z,9.38
2022-10-26T09:19:40.612Z,9.35
2022-10-26T09:22:20.214Z,9.60
2022-10-26T09:24:52.714Z,9.75
2022-10-26T09:27:30.558Z,9.50
2022-10-26T09:30:04.156Z,10.18
2022-10-26T09:32:31.310Z,10.60
2022-10-26T09:35:13.517Z,9.95
2022-10-26T09:37:47.880Z,9.32
2022-10-26T09:40:36.578Z,9.10
2022-10-26T09:43:14.264Z,8.98
2022-10-26T09:45:51.943Z,9.15
2022-10-26T09:48:44.608Z,9.32
2022-10-26T09:51:11.632Z,9.95
2022-10-26T09:53:38.715Z,10.25
2022-10-26T09:56:11.255Z,9.88
2022-10-26T09:58:44.106Z,8.55
2022-10-26T10:01:41.473Z,10.05
2022-10-26T10:04:22.681Z,9.32
2022-10-26T10:07:13.226Z,9.93
2022-10-26T10:09:40.504Z,9.07
2022-10-26T10:12:20.590Z,9.18
2022-10-26T10:14:58.767Z,8.85
2022-10-26T10:17:26.550Z,9.05
2022-10-26T10:19:53.877Z,9.45
2022-10-26T10:22:25.044Z,9.00
2022-10-26T10:24:59.046Z,9.07
2022-10-26T10:27:27.744Z,9.10
2022-10-26T10:29:59.954Z,8.80
2022-10-26T10:32:35.573Z,9.63
2022-10-26T10:35:23.670Z,9.40
2022-10-26T10:37:51.791Z,9.38
2022-10-26T10:40:23.179Z,9.10
2022-10-26T10:42:52.542Z,10.20
2022-10-26T10:45:29.188Z,10.40
2022-10-26T10:48:21.762Z,9.27
2022-10-26T10:50:53.402Z,8.25
2022-10-26T10:53:37.378Z,9.35
2022-10-26T10:56:34.512Z,8.40
2022-10-26T10:59:21.694Z,8.85
2022-10-26T11:02:24.576Z,8.52
2022-10-26T11:04:54.556Z,8.55
2022-10-26T11:07:24.527Z,8.43
2022-10-26T11:09:55.478Z,8.18
2022-10-26T11:12:28.280Z,8.05
2022-10-26T11:15:02.351Z,7.65
2022-10-26T11:17:43.528Z,9.02
2022-10-26T11:20:15.864Z,8.55
2022-10-26T11:25:49.686Z,8.50
2022-10-26T11:28:32.892Z,9.18
2022-10-26T11:31:06.488Z,8.18
2022-10-26T11:33:40.825Z,8.27
2022-10-26T11:36:17.212Z,8.13
2022-10-26T11:38:59.951Z,8.73
2022-10-26T11:41:40.339Z,7.72
2022-10-26T11:44:10.227Z,8.07
2022-10-26T11:46:46.163Z,9.93
2022-10-26T11:49:32.624Z,7.82
2022-10-26T11:52:17.773Z,7.68
2022-10-26T11:54:55.745Z,7.43
2022-10-26T11:57:25.239Z,8.68
2022-10-26T12:00:00.659Z,8.38
2022-10-26T12:02:27.852Z,8.80
2022-10-26T12:04:57.702Z,8.40
2022-10-26T12:07:31.393Z,8.35
2022-10-26T12:10:01.696Z,9.48
2022-10-26T12:12:43.549Z,7.78
2022-10-26T12:15:35.404Z,7.70
2022-10-26T12:18:36.836Z,8.80
2022-10-26T12:21:10.027Z,8.52
2022-10-26T12:23:41.014Z,8.57
2022-10-26T12:26:24.059Z,7.80
2022-10-26T12:29:03.216Z,8.63
2022-10-26T12:31:36.124Z,8.32
2022-10-26T12:34:14.780Z,10.65
2022-10-26T12:36:59.981Z,8.63
2022-10-26T12:39:40.765Z,9.07
2022-10-26T12:44:37.335Z,8.50
2022-10-26T12:47:05.579Z,9.75
2022-10-26T12:50:06.424Z,9.57
2022-10-26T12:52:57.335Z,10.57
2022-10-26T12:58:19.439Z,9.52
2022-10-26T13:01:14.398Z,10.35
2022-10-26T13:04:00.022Z,11.25
2022-10-26T13:06:45.336Z,9.60
2022-10-26T13:09:24.038Z,10.07
2022-10-26T13:11:56.557Z,9.93
2022-10-26T13:14:31.784Z,9.65
2022-10-26T13:17:01.763Z,10.82
2022-10-26T13:19:41.069Z,10.30
2022-10-26T13:22:19.798Z,10.55
2022-10-26T13:24:54.382Z,10.07
2022-10-26T13:27:41.022Z,10.48
2022-10-26T13:30:39.064Z,10.05
2022-10-26T13:33:15.695Z,10.63
2022-10-26T13:35:44.755Z,11.00
2022-10-26T13:38:13.497Z,9.68
2022-10-26T13:40:41.085Z,9.38
2022-10-26T13:43:19.571Z,9.13
2022-10-26T13:45:57.679Z,9.57
2022-10-26T13:48:38.911Z,8.50
2022-10-26T13:51:18.432Z,9.05
2022-10-26T13:54:01.061Z,9.38
2022-10-26T13:56:33.636Z,9.43
2022-10-26T13:59:10.583Z,8.13
2022-10-26T14:01:37.735Z,8.40
2022-10-26T14:04:27.289Z,7.65
2022-10-26T14:06:54.972Z,7.82
2022-10-26T14:09:23.832Z,7.88
2022-10-26T14:11:58.340Z,7.15
2022-10-26T14:14:45.877Z,11.85
2022-10-26T14:17:25.930Z,8.63
2022-10-26T14:19:53.664Z,7.80
2022-10-26T14:22:25.541Z,8.38
2022-10-26T14:27:39.445Z,8.02
2022-10-26T14:30:29.092Z,7.68
2022-10-26T14:32:58.166Z,7.93
2022-10-26T14:35:33.793Z,8.52
2022-10-26T14:38:04.335Z,8.02
2022-10-26T14:40:36.005Z,8.68
2022-10-26T14:43:05.912Z,9.05
2022-10-26T14:45:47.999Z,9.02
2022-10-26T14:48:25.991Z,8.70
2022-10-26T14:51:11.740Z,9.20
2022-10-26T14:53:41.599Z,9.00
2022-10-26T14:56:23.769Z,9.27
2022-10-26T14:58:51.997Z,9.77
2022-10-26T15:01:22.282Z,9.57
2022-10-26T15:04:14.856Z,9.90
2022-10-26T15:06:44.309Z,9.07
2022-10-26T15:09:53.454Z,10.20
2022-10-26T15:12:28.967Z,10.48
2022-10-26T15:15:06.126Z,10.30
2022-10-26T15:17:42.549Z,9.63
2022-10-26T15:20:18.791Z,10.27
2022-10-26T15:22:54.786Z,10.45
2022-10-26T15:25:28.419Z,10.48
2022-10-26T15:28:08.322Z,9.77
2022-10-26T15:30:35.353Z,9.80
2022-10-26T15:33:22.033Z,9.85
2022-10-26T15:35:49.294Z,9.75
2022-10-26T15:38:16.298Z,10.48
2022-10-26T15:40:44.113Z,10.23
2022-10-26T15:43:12.591Z,10.13
2022-10-26T15:45:52.685Z,11.27
2022-10-26T15:48:29.341Z,10.43
2022-10-26T15:50:56.418Z,11.10
2022-10-26T15:53:30.648Z,10.35
2022-10-26T15:55:59.933Z,10.43
2022-10-26T15:58:31.328Z,10.75
2022-10-26T16:00:58.417Z,9.82
2022-10-26T16:03:27.248Z,11.70
2022-10-26T16:05:59.000Z,10.32
2022-10-26T16:08:28.316Z,10.85
2022-10-26T16:10:55.410Z,10.98
2022-10-26T16:13:22.479Z,10.15
2022-10-26T16:15:50.136Z,10.70
2022-10-26T16:18:17.227Z,10.57
2022-10-26T16:20:46.493Z,10.55
2022-10-26T16:23:13.756Z,9.70
2022-10-26T16:25:44.142Z,9.88
2022-10-26T16:28:13.282Z,11.05
2022-10-26T16:30:41.878Z,10.30
2022-10-26T16:33:09.033Z,10.05
2022-10-26T16:35:36.175Z,10.60
2022-10-26T16:38:03.515Z,9.02
2022-10-26T16:40:30.547Z,10.20
2022-10-26T16:42:57.546Z,10.85
2022-10-26T16:45:24.557Z,10.23
2022-10-26T16:47:51.910Z,10.13
2022-10-26T16:50:22.170Z,10.55
2022-10-26T16:52:49.206Z,10.63
2022-10-26T16:55:17.183Z,9.55
2022-10-26T16:57:44.276Z,10.80
2022-10-26T17:00:11.867Z,9.85
2022-10-26T17:02:40.245Z,10.07
2022-10-26T17:05:08.599Z,10.05
2022-10-26T17:07:35.841Z,9.70
2022-10-26T17:10:02.851Z,10.43
2022-10-26T17:12:31.544Z,11.35
2022-10-26T17:15:00.779Z,10.38
2022-10-26T17:17:30.127Z,9.70
2022-10-26T17:19:57.446Z,10.50
2022-10-26T17:22:24.809Z,9.35
2022-10-26T17:24:51.983Z,9.25
2022-10-26T17:27:19.968Z,9.50
2022-10-26T17:29:47.211Z,10.02
2022-10-26T17:32:16.437Z,9.98
2022-10-26T17:34:43.535Z,9.82
2022-10-26T17:37:11.004Z,10.10
2022-10-26T17:39:38.110Z,10.52
2022-10-26T17:42:06.930Z,10.45
2022-10-26T17:44:35.264Z,9.82
2022-10-26T17:47:02.370Z,9.77
2022-10-26T17:49:33.630Z,9.52
2022-10-26T17:52:04.565Z,10.73
2022-10-26T17:54:31.831Z,10.27
2022-10-26T17:56:59.072Z,9.85
2022-10-26T17:59:27.921Z,10.70
2022-10-26T18:01:56.069Z,11.33
2022-10-26T18:04:25.109Z,10.50
2022-10-26T18:06:52.039Z,11.10
2022-10-26T18:09:19.189Z,10.70
2022-10-26T18:11:46.814Z,10.95
2022-10-26T18:14:14.293Z,10.50
2022-10-26T18:16:41.270Z,9.95
2022-10-26T18:19:08.979Z,9.75
2022-10-26T18:21:39.621Z,10.23
2022-10-26T18:24:08.179Z,10.88
2022-10-26T18:26:35.803Z,10.35
2022-10-26T18:29:04.683Z,10.23
2022-10-26T18:31:34.900Z,10.30
2022-10-26T18:34:04.493Z,10.60
2022-10-26T18:36:32.597Z,10.85
2022-10-26T18:38:59.906Z,11.05
2022-10-26T18:41:28.328Z,11.13
2022-10-26T18:43:59.097Z,11.40
2022-10-26T18:48:56.464Z,9.50
2022-10-26T18:51:28.875Z,9.80
2022-10-26T18:53:57.023Z,10.77
2022-10-26T18:56:25.153Z,10.93
2022-10-26T18:58:55.631Z,10.75
2022-10-26T19:01:30.662Z,10.90
2022-10-26T19:04:06.535Z,9.95
2022-10-26T19:06:36.135Z,10.10
2022-10-26T19:09:04.588Z,10.45
2022-10-26T19:11:32.018Z,10.75
2022-10-26T19:13:59.372Z,11.77
2022-10-26T19:16:46.871Z,10.20
2022-10-26T19:19:16.638Z,10.85
2022-10-26T19:21:45.205Z,10.50
2022-10-26T19:24:15.569Z,10.40
2022-10-26T19:26:43.996Z,10.65
2022-10-26T19:29:15.407Z,9.85
2022-10-26T19:31:45.201Z,10.50
2022-10-26T19:34:13.237Z,10.35
2022-10-26T19:36:44.885Z,10.65
2022-10-26T19:39:17.243Z,10.70
2022-10-26T19:41:46.915Z,10.10
2022-10-26T19:44:15.015Z,10.38
2022-10-26T19:46:43.502Z,11.60
2022-10-26T19:49:12.982Z,10.35
2022-10-26T19:51:40.543Z,10.35
2022-10-26T19:54:07.857Z,9.90
2022-10-26T19:56:36.407Z,10.05
2022-10-26T19:59:04.223Z,10.38
2022-10-26T20:01:31.406Z,9.80
2022-10-26T20:03:58.706Z,11.02
2022-10-26T20:06:25.809Z,10.80
2022-10-26T20:08:53.035Z,10.63
2022-10-26T20:11:20.447Z,11.10
2022-10-26T20:13:48.135Z,10.65
2022-10-26T20:16:16.926Z,11.15
2022-10-26T20:18:47.769Z,10.75
2022-10-26T20:21:17.770Z,10.80
2022-10-26T20:23:45.407Z,11.73
2022-10-26T20:26:19.803Z,10.55
2022-10-26T20:28:51.084Z,10.60
2022-10-26T20:33:45.451Z,10.32
2022-10-26T20:36:12.564Z,11.60
2022-10-26T20:38:40.345Z,10.05
2022-10-26T20:41:11.103Z,10.25
2022-10-26T20:46:07.616Z,12.38
2022-10-26T20:48:35.190Z,10.27
2022-10-26T20:51:07.326Z,11.20
2022-10-26T20:53:45.569Z,10.90
2022-10-26T20:56:23.084Z,10.10
2022-10-26T20:58:56.214Z,12.02
2022-10-26T21:01:32.385Z,11.30
2022-10-26T21:04:01.425Z,10.88
2022-10-26T21:06:29.529Z,10.95
2022-10-26T21:08:57.330Z,10.98
2022-10-26T21:11:26.522Z,12.10
2022-10-26T21:13:54.834Z,10.65
2022-10-26T21:18:54.235Z,11.65
2022-10-26T21:21:21.181Z,10.45
2022-10-26T21:23:48.718Z,10.65
2022-10-26T21:26:15.842Z,9.70
2022-10-26T21:28:47.616Z,10.45
2022-10-26T21:31:17.485Z,10.77
2022-10-26T21:33:46.328Z,10.57
2022-10-26T21:36:14.511Z,10.73
2022-10-26T21:38:43.630Z,10.35
2022-10-26T21:41:13.282Z,10.30
2022-10-26T21:43:42.446Z,10.83
2022-10-26T21:46:11.068Z,10.55
2022-10-26T21:48:41.128Z,9.30
2022-10-26T21:51:16.448Z,10.23
2022-10-26T21:53:43.847Z,9.95
2022-10-26T21:56:17.065Z,10.60
2022-10-26T21:58:44.663Z,10.07
2022-10-26T22:01:14.281Z,9.70
2022-10-26T22:03:42.038Z,10.35
2022-10-26T22:06:13.290Z,9.97
2022-10-26T22:08:40.820Z,9.43
2022-10-26T22:11:16.305Z,10.52
2022-10-26T22:13:44.623Z,10.77
2022-10-26T22:16:21.101Z,11.25
2022-10-26T22:18:49.926Z,10.77
2022-10-26T22:21:18.769Z,10.13
2022-10-26T22:23:46.486Z,10.00
2022-10-26T22:26:15.317Z,10.30
2022-10-26T22:28:45.107Z,9.57
2022-10-26T22:31:16.803Z,10.47
2022-10-26T22:33:44.517Z,10.70
2022-10-26T22:36:14.022Z,10.63
2022-10-26T22:38:41.536Z,10.75
2022-10-26T22:41:09.778Z,10.32
2022-10-26T22:43:36.923Z,10.05
2022-10-26T22:46:10.693Z,10.38
2022-10-26T22:48:38.628Z,9.90
2022-10-26T22:51:10.502Z,9.45
2022-10-26T22:53:38.203Z,10.18
2022-10-26T22:56:08.105Z,9.32
2022-10-26T22:58:36.640Z,10.13
2022-10-26T23:01:09.435Z,9.90
2022-10-26T23:03:36.918Z,9.88
2022-10-26T23:06:07.240Z,10.68
2022-10-26T23:08:34.591Z,10.52
2022-10-26T23:11:03.732Z,10.15
2022-10-26T23:13:30.841Z,10.00
2022-10-26T23:16:08.055Z,9.48
2022-10-26T23:18:35.672Z,9.65
2022-10-26T23:21:03.990Z,9.45
2022-10-26T23:23:31.076Z,9.18
2022-10-26T23:26:03.160Z,9.50
2022-10-26T23:28:30.309Z,8.80
2022-10-26T23:30:57.607Z,10.00
2022-10-26T23:33:24.760Z,10.07
2022-10-26T23:35:52.316Z,9.63
2022-10-26T23:38:19.891Z,9.13
2022-10-26T23:40:55.473Z,8.93
2022-10-26T23:43:23.286Z,9.07
2022-10-26T23:45:50.549Z,9.35
2022-10-26T23:48:19.427Z,9.20
2022-10-26T23:50:48.620Z,9.15
2022-10-26T23:53:18.287Z,9.35
2022-10-26T23:55:46.003Z,9.65
2022-10-26T23:58:14.150Z,9.45
